logo
Rechercher aéroport 
image banner adimage banner adimage banner ad
image banner ad

SKPE - Pereira-Matecana

Situé à Matecana, Colombia

ICAO - SKPE, IATA - PEI

Données fournies par Airmate  

Information générale

Coordonnées: N4°48'45" W75°44'24"
Élévation : 4418 feet MSL.
Variation magnétique : -7° East
Voir autres Aéroports à Risaralda

Données opérationnelles

Special qualification required
Heure actuelle UTC:
Heure actuelle locale:
Météo
METAR: SKPE 241800Z VRB03KT 9999 VCSH SCT018TCU SCT080 26/22 Q1016 RMK TCU VCSH/SE
TAF: TAF SKPE 241630Z 2418/2518 31006KT 9999 SCT017 TEMPO 2419/2422 SCT017TCU TEMPO 2422/2502 TSRA SCT017CB BKN080 BECMG 2509/2511 3000 BCFG BKN010 BECMG 2515/2517 9999 NSW SCT017 TX27/2420Z TN19/2510Z
Voir NOTAMs / SUP AIP / TFR affectant cet aéroport [VIEW]
Fréquences de communication: [VIEW]

Pistes:

Identifiant RWYQFULongueur (ft)Largeur (ft)SurfaceLDA (ft)
0872°6296148ASPH6296
26252°6296148ASPH6296

Coordonnées de l'aéroport

Adresse: Matecana Colombia

Vue satellite de SKPE